sensor_id;sensor_type;location;lat;lon;timestamp;P1;durP1;ratioP1;P2;durP2;ratioP2
68319;SDS011;55168;51.120;17.024;2023-12-07T00:00:00;109.4;;;64.7;;
68319;SDS011;55168;51.120;17.024;2023-12-07T00:01:00;109.4;;;64.7;;
68319;SDS011;55168;51.120;17.024;2023-12-07T00:02:00;109.4;;;64.7;;
68319;SDS011;55168;51.120;17.024;2023-12-07T00:03:00;107.3;;;63.5;;
68319;SDS011;55168;51.120;17.024;2023-12-07T00:04:00;107.3;;;63.5;;
68319;SDS011;55168;51.120;17.024;2023-12-07T00:05:00;107.3;;;63.5;;
68319;SDS011;55168;51.120;17.024;2023-12-07T00:06:00;107.3;;;63.5;;
68319;SDS011;55168;51.120;17.024;2023-12-07T00:07:00;107.3;;;63.5;;
68319;SDS011;55168;51.120;17.024;2023-12-07T00:08:00;113.7;;;65.6;;
68319;SDS011;55168;51.120;17.024;2023-12-07T00:09:00;113.7;;;65.6;;
68319;SDS011;55168;51.120;17.024;2023-12-07T00:10:00;113.7;;;65.6;;
68319;SDS011;55168;51.120;17.024;2023-12-07T00:11:00;113.7;;;65.6;;
68319;SDS011;55168;51.120;17.024;2023-12-07T00:12:00;113.7;;;65.6;;
68319;SDS011;55168;51.120;17.024;2023-12-07T00:13:00;106.7;;;61.6;;
68319;SDS011;55168;51.120;17.024;2023-12-07T00:14:00;106.7;;;61.6;;
68319;SDS011;55168;51.120;17.024;2023-12-07T00:15:00;106.7;;;61.6;;
68319;SDS011;55168;51.120;17.024;2023-12-07T00:16:00;106.7;;;61.6;;
68319;SDS011;55168;51.120;17.024;2023-12-07T00:17:00;106.7;;;61.6;;
68319;SDS011;55168;51.120;17.024;2023-12-07T00:18:00;103.3;;;59.9;;
68319;SDS011;55168;51.120;17.024;2023-12-07T00:19:00;103.3;;;59.9;;
68319;SDS011;55168;51.120;17.024;2023-12-07T00:20:00;103.3;;;59.9;;
68319;SDS011;55168;51.120;17.024;2023-12-07T00:21:00;103.3;;;59.9;;
68319;SDS011;55168;51.120;17.024;2023-12-07T00:22:00;103.3;;;59.9;;
68319;SDS011;55168;51.120;17.024;2023-12-07T00:23:00;100.7;;;62.0;;
68319;SDS011;55168;51.120;17.024;2023-12-07T00:24:00;100.7;;;62.0;;
68319;SDS011;55168;51.120;17.024;2023-12-07T00:25:00;100.7;;;62.0;;
68319;SDS011;55168;51.120;17.024;2023-12-07T00:26:00;100.7;;;62.0;;
68319;SDS011;55168;51.120;17.024;2023-12-07T00:27:00;100.7;;;62.0;;
68319;SDS011;55168;51.120;17.024;2023-12-07T00:28:00;103.9;;;59.4;;
68319;SDS011;55168;51.120;17.024;2023-12-07T00:29:00;103.9;;;59.4;;
68319;SDS011;55168;51.120;17.024;2023-12-07T00:30:00;103.9;;;59.4;;
68319;SDS011;55168;51.120;17.024;2023-12-07T00:31:00;103.9;;;59.4;;
68319;SDS011;55168;51.120;17.024;2023-12-07T00:32:00;103.9;;;59.4;;
68319;SDS011;55168;51.120;17.024;2023-12-07T00:33:00;101.1;;;62.1;;
68319;SDS011;55168;51.120;17.024;2023-12-07T00:34:00;101.1;;;62.1;;
68319;SDS011;55168;51.120;17.024;2023-12-07T00:35:00;101.1;;;62.1;;
68319;SDS011;55168;51.120;17.024;2023-12-07T00:36:00;101.1;;;62.1;;
68319;SDS011;55168;51.120;17.024;2023-12-07T00:37:00;101.1;;;62.1;;
68319;SDS011;55168;51.120;17.024;2023-12-07T00:38:00;102.2;;;61.2;;
68319;SDS011;55168;51.120;17.024;2023-12-07T00:39:00;102.2;;;61.2;;
68319;SDS011;55168;51.120;17.024;2023-12-07T00:40:00;102.2;;;61.2;;
68319;SDS011;55168;51.120;17.024;2023-12-07T00:41:00;102.2;;;61.2;;
68319;SDS011;55168;51.120;17.024;2023-12-07T00:42:00;102.2;;;61.2;;
68319;SDS011;55168;51.120;17.024;2023-12-07T00:43:00;101.5;;;59.8;;
68319;SDS011;55168;51.120;17.024;2023-12-07T00:44:00;101.5;;;59.8;;
68319;SDS011;55168;51.120;17.024;2023-12-07T00:45:00;101.5;;;59.8;;
68319;SDS011;55168;51.120;17.024;2023-12-07T00:46:00;101.5;;;59.8;;
68319;SDS011;55168;51.120;17.024;2023-12-07T00:47:00;101.5;;;59.8;;
68319;SDS011;55168;51.120;17.024;2023-12-07T00:48:00;103.5;;;59.7;;
68319;SDS011;55168;51.120;17.024;2023-12-07T00:49:00;103.5;;;59.7;;
68319;SDS011;55168;51.120;17.024;2023-12-07T00:50:00;103.5;;;59.7;;
68319;SDS011;55168;51.120;17.024;2023-12-07T00:51:00;103.5;;;59.7;;
68319;SDS011;55168;51.120;17.024;2023-12-07T00:52:00;103.5;;;59.7;;
68319;SDS011;55168;51.120;17.024;2023-12-07T00:53:00;100.7;;;60.0;;
68319;SDS011;55168;51.120;17.024;2023-12-07T00:54:00;100.7;;;60.0;;
68319;SDS011;55168;51.120;17.024;2023-12-07T00:55:00;100.7;;;60.0;;
68319;SDS011;55168;51.120;17.024;2023-12-07T00:56:02;100.7;;;60.0;;
68319;SDS011;55168;51.120;17.024;2023-12-07T00:57:00;100.7;;;60.0;;
68319;SDS011;55168;51.120;17.024;2023-12-07T00:58:00;96.9;;;60.2;;
68319;SDS011;55168;51.120;17.024;2023-12-07T00:59:00;96.9;;;60.2;;
68319;SDS011;55168;51.120;17.024;2023-12-07T01:00:00;96.9;;;60.2;;
68319;SDS011;55168;51.120;17.024;2023-12-07T01:01:00;96.9;;;60.2;;
68319;SDS011;55168;51.120;17.024;2023-12-07T01:02:00;96.9;;;60.2;;
68319;SDS011;55168;51.120;17.024;2023-12-07T01:03:00;101.3;;;61.8;;
68319;SDS011;55168;51.120;17.024;2023-12-07T01:04:00;101.3;;;61.8;;
68319;SDS011;55168;51.120;17.024;2023-12-07T01:05:00;101.3;;;61.8;;
68319;SDS011;55168;51.120;17.024;2023-12-07T01:06:00;101.3;;;61.8;;
68319;SDS011;55168;51.120;17.024;2023-12-07T01:07:00;101.3;;;61.8;;
68319;SDS011;55168;51.120;17.024;2023-12-07T01:08:00;96.6;;;61.0;;
68319;SDS011;55168;51.120;17.024;2023-12-07T01:09:00;96.6;;;61.0;;
68319;SDS011;55168;51.120;17.024;2023-12-07T01:10:00;96.6;;;61.0;;
68319;SDS011;55168;51.120;17.024;2023-12-07T01:11:00;96.6;;;61.0;;
68319;SDS011;55168;51.120;17.024;2023-12-07T01:12:00;96.6;;;61.0;;
68319;SDS011;55168;51.120;17.024;2023-12-07T01:13:00;99.8;;;60.5;;
68319;SDS011;55168;51.120;17.024;2023-12-07T01:14:00;99.8;;;60.5;;
68319;SDS011;55168;51.120;17.024;2023-12-07T01:15:00;99.8;;;60.5;;
68319;SDS011;55168;51.120;17.024;2023-12-07T01:16:00;99.8;;;60.5;;
68319;SDS011;55168;51.120;17.024;2023-12-07T01:17:00;99.8;;;60.5;;
68319;SDS011;55168;51.120;17.024;2023-12-07T01:18:00;103.7;;;60.8;;
68319;SDS011;55168;51.120;17.024;2023-12-07T01:19:00;103.7;;;60.8;;
68319;SDS011;55168;51.120;17.024;2023-12-07T01:20:00;103.7;;;60.8;;
68319;SDS011;55168;51.120;17.024;2023-12-07T01:21:00;103.7;;;60.8;;
68319;SDS011;55168;51.120;17.024;2023-12-07T01:22:00;103.7;;;60.8;;
68319;SDS011;55168;51.120;17.024;2023-12-07T01:23:00;98.3;;;60.3;;
68319;SDS011;55168;51.120;17.024;2023-12-07T01:24:00;98.3;;;60.3;;
68319;SDS011;55168;51.120;17.024;2023-12-07T01:25:00;98.3;;;60.3;;
68319;SDS011;55168;51.120;17.024;2023-12-07T01:26:00;98.3;;;60.3;;
68319;SDS011;55168;51.120;17.024;2023-12-07T01:27:00;98.3;;;60.3;;
68319;SDS011;55168;51.120;17.024;2023-12-07T01:28:00;99.1;;;60.4;;
68319;SDS011;55168;51.120;17.024;2023-12-07T01:29:00;99.1;;;60.4;;
68319;SDS011;55168;51.120;17.024;2023-12-07T01:30:00;99.1;;;60.4;;
68319;SDS011;55168;51.120;17.024;2023-12-07T01:31:00;99.1;;;60.4;;
68319;SDS011;55168;51.120;17.024;2023-12-07T01:32:00;99.1;;;60.4;;
68319;SDS011;55168;51.120;17.024;2023-12-07T01:33:00;103.1;;;59.9;;
68319;SDS011;55168;51.120;17.024;2023-12-07T01:34:00;103.1;;;59.9;;
68319;SDS011;55168;51.120;17.024;2023-12-07T01:35:00;103.1;;;59.9;;
68319;SDS011;55168;51.120;17.024;2023-12-07T01:36:00;103.1;;;59.9;;
68319;SDS011;55168;51.120;17.024;2023-12-07T01:37:00;103.1;;;59.9;;
68319;SDS011;55168;51.120;17.024;2023-12-07T01:38:00;95.7;;;56.8;;
68319;SDS011;55168;51.120;17.024;2023-12-07T01:39:00;95.7;;;56.8;;
68319;SDS011;55168;51.120;17.024;2023-12-07T01:40:00;95.7;;;56.8;;
68319;SDS011;55168;51.120;17.024;2023-12-07T01:41:00;95.7;;;56.8;;
68319;SDS011;55168;51.120;17.024;2023-12-07T01:42:00;95.7;;;56.8;;
68319;SDS011;55168;51.120;17.024;2023-12-07T01:43:00;99.8;;;61.2;;
68319;SDS011;55168;51.120;17.024;2023-12-07T01:44:00;99.8;;;61.2;;
68319;SDS011;55168;51.120;17.024;2023-12-07T01:45:00;99.8;;;61.2;;
68319;SDS011;55168;51.120;17.024;2023-12-07T01:46:00;99.8;;;61.2;;
68319;SDS011;55168;51.120;17.024;2023-12-07T01:47:00;99.8;;;61.2;;
68319;SDS011;55168;51.120;17.024;2023-12-07T01:48:00;98.6;;;57.5;;
68319;SDS011;55168;51.120;17.024;2023-12-07T01:49:01;98.6;;;57.5;;
68319;SDS011;55168;51.120;17.024;2023-12-07T01:50:00;98.6;;;57.5;;
68319;SDS011;55168;51.120;17.024;2023-12-07T01:51:00;98.6;;;57.5;;
68319;SDS011;55168;51.120;17.024;2023-12-07T01:52:01;98.6;;;57.5;;
68319;SDS011;55168;51.120;17.024;2023-12-07T01:53:02;99.3;;;58.8;;
68319;SDS011;55168;51.120;17.024;2023-12-07T01:54:01;99.3;;;58.8;;
68319;SDS011;55168;51.120;17.024;2023-12-07T01:55:00;99.3;;;58.8;;
68319;SDS011;55168;51.120;17.024;2023-12-07T01:56:00;99.3;;;58.8;;
68319;SDS011;55168;51.120;17.024;2023-12-07T01:57:00;99.3;;;58.8;;
68319;SDS011;55168;51.120;17.024;2023-12-07T01:58:00;96.1;;;58.0;;
68319;SDS011;55168;51.120;17.024;2023-12-07T01:59:00;96.1;;;58.0;;
68319;SDS011;55168;51.120;17.024;2023-12-07T02:00:00;96.1;;;58.0;;
68319;SDS011;55168;51.120;17.024;2023-12-07T02:01:01;96.1;;;58.0;;
68319;SDS011;55168;51.120;17.024;2023-12-07T02:02:00;96.1;;;58.0;;
68319;SDS011;55168;51.120;17.024;2023-12-07T02:03:02;96.0;;;58.7;;
68319;SDS011;55168;51.120;17.024;2023-12-07T02:04:00;96.0;;;58.7;;
68319;SDS011;55168;51.120;17.024;2023-12-07T02:05:00;96.0;;;58.7;;
68319;SDS011;55168;51.120;17.024;2023-12-07T02:06:01;96.0;;;58.7;;
68319;SDS011;55168;51.120;17.024;2023-12-07T02:07:01;96.0;;;58.7;;
68319;SDS011;55168;51.120;17.024;2023-12-07T02:08:00;101.1;;;60.1;;
68319;SDS011;55168;51.120;17.024;2023-12-07T02:09:00;101.1;;;60.1;;
68319;SDS011;55168;51.120;17.024;2023-12-07T02:10:00;101.1;;;60.1;;
68319;SDS011;55168;51.120;17.024;2023-12-07T02:11:00;101.1;;;60.1;;
68319;SDS011;55168;51.120;17.024;2023-12-07T02:12:00;101.1;;;60.1;;
68319;SDS011;55168;51.120;17.024;2023-12-07T02:13:00;96.7;;;58.9;;
68319;SDS011;55168;51.120;17.024;2023-12-07T02:14:00;96.7;;;58.9;;
68319;SDS011;55168;51.120;17.024;2023-12-07T02:15:02;96.7;;;58.9;;
68319;SDS011;55168;51.120;17.024;2023-12-07T02:16:04;96.7;;;58.9;;
68319;SDS011;55168;51.120;17.024;2023-12-07T02:17:09;96.7;;;58.9;;
68319;SDS011;55168;51.120;17.024;2023-12-07T02:18:18;97.3;;;58.9;;
68319;SDS011;55168;51.120;17.024;2023-12-07T02:20:11;97.3;;;58.9;;
68319;SDS011;55168;51.120;17.024;2023-12-07T02:21:07;97.3;;;58.9;;
68319;SDS011;55168;51.120;17.024;2023-12-07T02:22:03;97.3;;;58.9;;
68319;SDS011;55168;51.120;17.024;2023-12-07T02:23:01;97.7;;;58.2;;
68319;SDS011;55168;51.120;17.024;2023-12-07T02:24:01;97.7;;;58.2;;
68319;SDS011;55168;51.120;17.024;2023-12-07T02:25:09;97.7;;;58.2;;
68319;SDS011;55168;51.120;17.024;2023-12-07T02:26:03;97.7;;;58.2;;
68319;SDS011;55168;51.120;17.024;2023-12-07T02:27:00;97.7;;;58.2;;
68319;SDS011;55168;51.120;17.024;2023-12-07T02:28:00;97.7;;;57.8;;
68319;SDS011;55168;51.120;17.024;2023-12-07T02:29:00;97.7;;;57.8;;
68319;SDS011;55168;51.120;17.024;2023-12-07T02:30:00;97.7;;;57.8;;
68319;SDS011;55168;51.120;17.024;2023-12-07T02:31:00;97.7;;;57.8;;
68319;SDS011;55168;51.120;17.024;2023-12-07T02:32:00;97.7;;;57.8;;
68319;SDS011;55168;51.120;17.024;2023-12-07T02:33:00;98.3;;;59.1;;
68319;SDS011;55168;51.120;17.024;2023-12-07T02:34:00;98.3;;;59.1;;
68319;SDS011;55168;51.120;17.024;2023-12-07T02:35:00;98.3;;;59.1;;
68319;SDS011;55168;51.120;17.024;2023-12-07T02:36:00;98.3;;;59.1;;
68319;SDS011;55168;51.120;17.024;2023-12-07T02:37:01;98.3;;;59.1;;
68319;SDS011;55168;51.120;17.024;2023-12-07T02:38:00;99.1;;;57.8;;
68319;SDS011;55168;51.120;17.024;2023-12-07T02:39:00;99.1;;;57.8;;
68319;SDS011;55168;51.120;17.024;2023-12-07T02:40:00;99.1;;;57.8;;
68319;SDS011;55168;51.120;17.024;2023-12-07T02:41:00;99.1;;;57.8;;
68319;SDS011;55168;51.120;17.024;2023-12-07T02:42:00;99.1;;;57.8;;
68319;SDS011;55168;51.120;17.024;2023-12-07T02:43:00;98.6;;;57.9;;
68319;SDS011;55168;51.120;17.024;2023-12-07T02:44:00;98.6;;;57.9;;
68319;SDS011;55168;51.120;17.024;2023-12-07T02:45:00;98.6;;;57.9;;
68319;SDS011;55168;51.120;17.024;2023-12-07T02:46:00;98.6;;;57.9;;
68319;SDS011;55168;51.120;17.024;2023-12-07T02:47:00;98.6;;;57.9;;
68319;SDS011;55168;51.120;17.024;2023-12-07T02:48:00;96.6;;;58.6;;
68319;SDS011;55168;51.120;17.024;2023-12-07T02:49:00;96.6;;;58.6;;
68319;SDS011;55168;51.120;17.024;2023-12-07T02:50:00;96.6;;;58.6;;
68319;SDS011;55168;51.120;17.024;2023-12-07T02:51:00;96.6;;;58.6;;
68319;SDS011;55168;51.120;17.024;2023-12-07T02:52:00;96.6;;;58.6;;
68319;SDS011;55168;51.120;17.024;2023-12-07T02:53:00;101.6;;;58.3;;
68319;SDS011;55168;51.120;17.024;2023-12-07T02:54:00;101.6;;;58.3;;
68319;SDS011;55168;51.120;17.024;2023-12-07T02:55:00;101.6;;;58.3;;
68319;SDS011;55168;51.120;17.024;2023-12-07T02:56:00;101.6;;;58.3;;
68319;SDS011;55168;51.120;17.024;2023-12-07T02:57:00;101.6;;;58.3;;
68319;SDS011;55168;51.120;17.024;2023-12-07T02:58:00;97.4;;;58.6;;
68319;SDS011;55168;51.120;17.024;2023-12-07T02:59:00;97.4;;;58.6;;
68319;SDS011;55168;51.120;17.024;2023-12-07T03:00:00;97.4;;;58.6;;
68319;SDS011;55168;51.120;17.024;2023-12-07T03:01:00;97.4;;;58.6;;
68319;SDS011;55168;51.120;17.024;2023-12-07T03:02:00;97.4;;;58.6;;
68319;SDS011;55168;51.120;17.024;2023-12-07T03:03:00;99.4;;;59.0;;
68319;SDS011;55168;51.120;17.024;2023-12-07T03:04:00;99.4;;;59.0;;
68319;SDS011;55168;51.120;17.024;2023-12-07T03:05:00;99.4;;;59.0;;
68319;SDS011;55168;51.120;17.024;2023-12-07T03:06:00;99.4;;;59.0;;
68319;SDS011;55168;51.120;17.024;2023-12-07T03:07:00;99.4;;;59.0;;
68319;SDS011;55168;51.120;17.024;2023-12-07T03:08:00;101.7;;;58.0;;
68319;SDS011;55168;51.120;17.024;2023-12-07T03:09:00;101.7;;;58.0;;
68319;SDS011;55168;51.120;17.024;2023-12-07T03:10:00;101.7;;;58.0;;
68319;SDS011;55168;51.120;17.024;2023-12-07T03:11:00;101.7;;;58.0;;
68319;SDS011;55168;51.120;17.024;2023-12-07T03:12:00;101.7;;;58.0;;
68319;SDS011;55168;51.120;17.024;2023-12-07T03:13:00;99.7;;;59.0;;
68319;SDS011;55168;51.120;17.024;2023-12-07T03:14:00;99.7;;;59.0;;
68319;SDS011;55168;51.120;17.024;2023-12-07T03:15:00;99.7;;;59.0;;
68319;SDS011;55168;51.120;17.024;2023-12-07T03:16:00;99.7;;;59.0;;
68319;SDS011;55168;51.120;17.024;2023-12-07T03:17:00;99.7;;;59.0;;
68319;SDS011;55168;51.120;17.024;2023-12-07T03:18:00;94.3;;;57.0;;
68319;SDS011;55168;51.120;17.024;2023-12-07T03:19:01;94.3;;;57.0;;
68319;SDS011;55168;51.120;17.024;2023-12-07T03:20:00;94.3;;;57.0;;
68319;SDS011;55168;51.120;17.024;2023-12-07T03:21:01;94.3;;;57.0;;
68319;SDS011;55168;51.120;17.024;2023-12-07T03:22:00;94.3;;;57.0;;
68319;SDS011;55168;51.120;17.024;2023-12-07T03:23:00;92.9;;;56.9;;
68319;SDS011;55168;51.120;17.024;2023-12-07T03:24:00;92.9;;;56.9;;
68319;SDS011;55168;51.120;17.024;2023-12-07T03:25:00;92.9;;;56.9;;
68319;SDS011;55168;51.120;17.024;2023-12-07T03:26:00;92.9;;;56.9;;
68319;SDS011;55168;51.120;17.024;2023-12-07T03:27:00;92.9;;;56.9;;
68319;SDS011;55168;51.120;17.024;2023-12-07T03:28:00;95.6;;;58.0;;
68319;SDS011;55168;51.120;17.024;2023-12-07T03:29:00;95.6;;;58.0;;
68319;SDS011;55168;51.120;17.024;2023-12-07T03:30:00;95.6;;;58.0;;
68319;SDS011;55168;51.120;17.024;2023-12-07T03:31:00;95.6;;;58.0;;
68319;SDS011;55168;51.120;17.024;2023-12-07T03:32:00;95.6;;;58.0;;
68319;SDS011;55168;51.120;17.024;2023-12-07T03:33:00;99.2;;;58.3;;
68319;SDS011;55168;51.120;17.024;2023-12-07T03:34:00;99.2;;;58.3;;
68319;SDS011;55168;51.120;17.024;2023-12-07T03:35:00;99.2;;;58.3;;
68319;SDS011;55168;51.120;17.024;2023-12-07T03:36:00;99.2;;;58.3;;
68319;SDS011;55168;51.120;17.024;2023-12-07T03:37:00;99.2;;;58.3;;
68319;SDS011;55168;51.120;17.024;2023-12-07T03:38:00;101.6;;;59.3;;
68319;SDS011;55168;51.120;17.024;2023-12-07T03:39:00;101.6;;;59.3;;
68319;SDS011;55168;51.120;17.024;2023-12-07T03:40:00;101.6;;;59.3;;
68319;SDS011;55168;51.120;17.024;2023-12-07T03:41:00;101.6;;;59.3;;
68319;SDS011;55168;51.120;17.024;2023-12-07T03:42:00;101.6;;;59.3;;
68319;SDS011;55168;51.120;17.024;2023-12-07T03:43:00;94.8;;;57.2;;
68319;SDS011;55168;51.120;17.024;2023-12-07T03:44:00;94.8;;;57.2;;
68319;SDS011;55168;51.120;17.024;2023-12-07T03:45:00;94.8;;;57.2;;
68319;SDS011;55168;51.120;17.024;2023-12-07T03:46:03;94.8;;;57.2;;
68319;SDS011;55168;51.120;17.024;2023-12-07T03:47:00;94.8;;;57.2;;
68319;SDS011;55168;51.120;17.024;2023-12-07T03:48:00;103.1;;;60.5;;
68319;SDS011;55168;51.120;17.024;2023-12-07T03:49:00;103.1;;;60.5;;
68319;SDS011;55168;51.120;17.024;2023-12-07T03:50:00;103.1;;;60.5;;
68319;SDS011;55168;51.120;17.024;2023-12-07T03:51:00;103.1;;;60.5;;
68319;SDS011;55168;51.120;17.024;2023-12-07T03:52:00;99.9;;;60.6;;
68319;SDS011;55168;51.120;17.024;2023-12-07T03:53:00;99.9;;;60.6;;
68319;SDS011;55168;51.120;17.024;2023-12-07T03:54:00;99.9;;;60.6;;
68319;SDS011;55168;51.120;17.024;2023-12-07T03:55:00;99.9;;;60.6;;
68319;SDS011;55168;51.120;17.024;2023-12-07T03:56:00;99.9;;;60.6;;
68319;SDS011;55168;51.120;17.024;2023-12-07T03:57:00;92.6;;;55.8;;
68319;SDS011;55168;51.120;17.024;2023-12-07T03:58:00;92.6;;;55.8;;
68319;SDS011;55168;51.120;17.024;2023-12-07T03:59:00;92.6;;;55.8;;
68319;SDS011;55168;51.120;17.024;2023-12-07T04:00:00;92.6;;;55.8;;
68319;SDS011;55168;51.120;17.024;2023-12-07T04:01:00;92.6;;;55.8;;
68319;SDS011;55168;51.120;17.024;2023-12-07T04:02:00;97.7;;;57.3;;
68319;SDS011;55168;51.120;17.024;2023-12-07T04:03:00;97.7;;;57.3;;
68319;SDS011;55168;51.120;17.024;2023-12-07T04:04:00;97.7;;;57.3;;
68319;SDS011;55168;51.120;17.024;2023-12-07T04:05:00;97.7;;;57.3;;
68319;SDS011;55168;51.120;17.024;2023-12-07T04:06:00;97.7;;;57.3;;
68319;SDS011;55168;51.120;17.024;2023-12-07T04:07:00;96.5;;;57.9;;
68319;SDS011;55168;51.120;17.024;2023-12-07T04:08:00;96.5;;;57.9;;
68319;SDS011;55168;51.120;17.024;2023-12-07T04:09:00;96.5;;;57.9;;
68319;SDS011;55168;51.120;17.024;2023-12-07T04:10:00;96.5;;;57.9;;
68319;SDS011;55168;51.120;17.024;2023-12-07T04:11:00;96.5;;;57.9;;
68319;SDS011;55168;51.120;17.024;2023-12-07T04:12:00;96.8;;;59.0;;
68319;SDS011;55168;51.120;17.024;2023-12-07T04:13:00;96.8;;;59.0;;
68319;SDS011;55168;51.120;17.024;2023-12-07T04:14:00;96.8;;;59.0;;
68319;SDS011;55168;51.120;17.024;2023-12-07T04:15:00;96.8;;;59.0;;
68319;SDS011;55168;51.120;17.024;2023-12-07T04:16:00;96.8;;;59.0;;
68319;SDS011;55168;51.120;17.024;2023-12-07T04:17:00;101.6;;;58.9;;
68319;SDS011;55168;51.120;17.024;2023-12-07T04:18:00;101.6;;;58.9;;
68319;SDS011;55168;51.120;17.024;2023-12-07T04:19:00;101.6;;;58.9;;
68319;SDS011;55168;51.120;17.024;2023-12-07T04:20:00;101.6;;;58.9;;
68319;SDS011;55168;51.120;17.024;2023-12-07T04:21:00;101.6;;;58.9;;
68319;SDS011;55168;51.120;17.024;2023-12-07T04:22:00;93.5;;;57.0;;
68319;SDS011;55168;51.120;17.024;2023-12-07T04:23:00;93.5;;;57.0;;
68319;SDS011;55168;51.120;17.024;2023-12-07T04:24:00;93.5;;;57.0;;
68319;SDS011;55168;51.120;17.024;2023-12-07T04:25:00;93.5;;;57.0;;
68319;SDS011;55168;51.120;17.024;2023-12-07T04:26:00;93.5;;;57.0;;
68319;SDS011;55168;51.120;17.024;2023-12-07T04:27:00;95.8;;;57.3;;
68319;SDS011;55168;51.120;17.024;2023-12-07T04:28:00;95.8;;;57.3;;
68319;SDS011;55168;51.120;17.024;2023-12-07T04:29:00;95.8;;;57.3;;
68319;SDS011;55168;51.120;17.024;2023-12-07T04:30:00;95.8;;;57.3;;
68319;SDS011;55168;51.120;17.024;2023-12-07T04:31:00;95.8;;;57.3;;
68319;SDS011;55168;51.120;17.024;2023-12-07T04:32:00;95.6;;;56.2;;
68319;SDS011;55168;51.120;17.024;2023-12-07T04:33:00;95.6;;;56.2;;
68319;SDS011;55168;51.120;17.024;2023-12-07T04:34:00;95.6;;;56.2;;
68319;SDS011;55168;51.120;17.024;2023-12-07T04:35:00;95.6;;;56.2;;
68319;SDS011;55168;51.120;17.024;2023-12-07T04:36:00;95.6;;;56.2;;
68319;SDS011;55168;51.120;17.024;2023-12-07T04:37:00;98.3;;;58.0;;
68319;SDS011;55168;51.120;17.024;2023-12-07T04:38:00;98.3;;;58.0;;
68319;SDS011;55168;51.120;17.024;2023-12-07T04:39:00;98.3;;;58.0;;
68319;SDS011;55168;51.120;17.024;2023-12-07T04:40:00;98.3;;;58.0;;
68319;SDS011;55168;51.120;17.024;2023-12-07T04:41:00;98.3;;;58.0;;
68319;SDS011;55168;51.120;17.024;2023-12-07T04:42:00;104.0;;;60.9;;
68319;SDS011;55168;51.120;17.024;2023-12-07T04:43:00;104.0;;;60.9;;
68319;SDS011;55168;51.120;17.024;2023-12-07T04:44:00;104.0;;;60.9;;
68319;SDS011;55168;51.120;17.024;2023-12-07T04:45:00;104.0;;;60.9;;
68319;SDS011;55168;51.120;17.024;2023-12-07T04:46:00;104.0;;;60.9;;
68319;SDS011;55168;51.120;17.024;2023-12-07T04:47:00;100.5;;;58.6;;
68319;SDS011;55168;51.120;17.024;2023-12-07T04:48:00;100.5;;;58.6;;
68319;SDS011;55168;51.120;17.024;2023-12-07T04:49:00;100.5;;;58.6;;
68319;SDS011;55168;51.120;17.024;2023-12-07T04:50:00;100.5;;;58.6;;
68319;SDS011;55168;51.120;17.024;2023-12-07T04:51:00;100.5;;;58.6;;
68319;SDS011;55168;51.120;17.024;2023-12-07T04:52:00;99.6;;;58.5;;
68319;SDS011;55168;51.120;17.024;2023-12-07T04:53:00;99.6;;;58.5;;
68319;SDS011;55168;51.120;17.024;2023-12-07T04:54:00;99.6;;;58.5;;
68319;SDS011;55168;51.120;17.024;2023-12-07T04:55:00;99.6;;;58.5;;
68319;SDS011;55168;51.120;17.024;2023-12-07T04:56:00;99.6;;;58.5;;
68319;SDS011;55168;51.120;17.024;2023-12-07T04:57:00;102.0;;;60.4;;
68319;SDS011;55168;51.120;17.024;2023-12-07T04:58:00;102.0;;;60.4;;
68319;SDS011;55168;51.120;17.024;2023-12-07T04:59:00;102.0;;;60.4;;
68319;SDS011;55168;51.120;17.024;2023-12-07T05:00:00;102.0;;;60.4;;
68319;SDS011;55168;51.120;17.024;2023-12-07T05:01:00;102.0;;;60.4;;
68319;SDS011;55168;51.120;17.024;2023-12-07T05:02:00;103.5;;;59.1;;
68319;SDS011;55168;51.120;17.024;2023-12-07T05:03:00;103.5;;;59.1;;
68319;SDS011;55168;51.120;17.024;2023-12-07T05:04:00;103.5;;;59.1;;
68319;SDS011;55168;51.120;17.024;2023-12-07T05:05:00;103.5;;;59.1;;
68319;SDS011;55168;51.120;17.024;2023-12-07T05:06:00;103.5;;;59.1;;
68319;SDS011;55168;51.120;17.024;2023-12-07T05:07:00;104.1;;;59.1;;
68319;SDS011;55168;51.120;17.024;2023-12-07T05:08:00;104.1;;;59.1;;
68319;SDS011;55168;51.120;17.024;2023-12-07T05:09:00;104.1;;;59.1;;
68319;SDS011;55168;51.120;17.024;2023-12-07T05:10:00;104.1;;;59.1;;
68319;SDS011;55168;51.120;17.024;2023-12-07T05:11:00;104.1;;;59.1;;
68319;SDS011;55168;51.120;17.024;2023-12-07T05:12:00;102.5;;;59.5;;
68319;SDS011;55168;51.120;17.024;2023-12-07T05:13:00;102.5;;;59.5;;
68319;SDS011;55168;51.120;17.024;2023-12-07T05:14:00;102.5;;;59.5;;
68319;SDS011;55168;51.120;17.024;2023-12-07T05:15:00;102.5;;;59.5;;
68319;SDS011;55168;51.120;17.024;2023-12-07T05:16:00;102.5;;;59.5;;
68319;SDS011;55168;51.120;17.024;2023-12-07T05:17:00;100.5;;;60.8;;
68319;SDS011;55168;51.120;17.024;2023-12-07T05:18:00;100.5;;;60.8;;
68319;SDS011;55168;51.120;17.024;2023-12-07T05:19:00;100.5;;;60.8;;
68319;SDS011;55168;51.120;17.024;2023-12-07T05:20:00;100.5;;;60.8;;
68319;SDS011;55168;51.120;17.024;2023-12-07T05:21:00;100.5;;;60.8;;
68319;SDS011;55168;51.120;17.024;2023-12-07T05:22:00;104.0;;;60.5;;
68319;SDS011;55168;51.120;17.024;2023-12-07T05:23:00;104.0;;;60.5;;
68319;SDS011;55168;51.120;17.024;2023-12-07T05:24:00;104.0;;;60.5;;
68319;SDS011;55168;51.120;17.024;2023-12-07T05:25:00;104.0;;;60.5;;
68319;SDS011;55168;51.120;17.024;2023-12-07T05:26:00;104.0;;;60.5;;
68319;SDS011;55168;51.120;17.024;2023-12-07T05:27:00;102.8;;;58.7;;
68319;SDS011;55168;51.120;17.024;2023-12-07T05:28:00;102.8;;;58.7;;
68319;SDS011;55168;51.120;17.024;2023-12-07T05:29:00;102.8;;;58.7;;
68319;SDS011;55168;51.120;17.024;2023-12-07T05:30:00;102.8;;;58.7;;
68319;SDS011;55168;51.120;17.024;2023-12-07T05:31:00;102.8;;;58.7;;
68319;SDS011;55168;51.120;17.024;2023-12-07T05:32:00;119.0;;;60.9;;
68319;SDS011;55168;51.120;17.024;2023-12-07T05:33:00;119.0;;;60.9;;
68319;SDS011;55168;51.120;17.024;2023-12-07T05:34:00;119.0;;;60.9;;
68319;SDS011;55168;51.120;17.024;2023-12-07T05:35:00;119.0;;;60.9;;
68319;SDS011;55168;51.120;17.024;2023-12-07T05:36:00;119.0;;;60.9;;
68319;SDS011;55168;51.120;17.024;2023-12-07T05:37:00;110.3;;;60.8;;
68319;SDS011;55168;51.120;17.024;2023-12-07T05:38:00;110.3;;;60.8;;
68319;SDS011;55168;51.120;17.024;2023-12-07T05:39:00;110.3;;;60.8;;
68319;SDS011;55168;51.120;17.024;2023-12-07T05:40:00;110.3;;;60.8;;
68319;SDS011;55168;51.120;17.024;2023-12-07T05:41:00;110.3;;;60.8;;
68319;SDS011;55168;51.120;17.024;2023-12-07T05:42:00;103.8;;;58.7;;
68319;SDS011;55168;51.120;17.024;2023-12-07T05:43:00;103.8;;;58.7;;
68319;SDS011;55168;51.120;17.024;2023-12-07T05:44:00;103.8;;;58.7;;
68319;SDS011;55168;51.120;17.024;2023-12-07T05:45:00;103.8;;;58.7;;
68319;SDS011;55168;51.120;17.024;2023-12-07T05:46:00;103.8;;;58.7;;
68319;SDS011;55168;51.120;17.024;2023-12-07T05:47:00;99.9;;;59.0;;
68319;SDS011;55168;51.120;17.024;2023-12-07T05:48:00;99.9;;;59.0;;
68319;SDS011;55168;51.120;17.024;2023-12-07T05:49:00;99.9;;;59.0;;
68319;SDS011;55168;51.120;17.024;2023-12-07T05:50:00;99.9;;;59.0;;
68319;SDS011;55168;51.120;17.024;2023-12-07T05:51:01;99.9;;;59.0;;
68319;SDS011;55168;51.120;17.024;2023-12-07T05:52:00;106.5;;;60.9;;
68319;SDS011;55168;51.120;17.024;2023-12-07T05:53:00;106.5;;;60.9;;
68319;SDS011;55168;51.120;17.024;2023-12-07T05:54:00;106.5;;;60.9;;